createdAt,value
2023-02-12T00:01:37.362Z,99373.45
2023-02-12T00:04:05.750Z,99375.11
2023-02-12T00:06:34.863Z,99379.67
2023-02-12T00:09:03.223Z,99385.58
2023-02-12T00:11:32.211Z,99384.41
2023-02-12T00:14:02.074Z,99391.64
2023-02-12T00:16:32.557Z,99388.41
2023-02-12T00:19:01.246Z,99390.86
2023-02-12T00:21:29.831Z,99397.98
2023-02-12T00:23:59.037Z,99405.54
2023-02-12T00:26:27.721Z,99407.48
2023-02-12T00:28:56.200Z,99417.66
2023-02-12T00:31:26.746Z,99419.10
2023-02-12T00:33:59.368Z,99421.50
2023-02-12T00:36:28.925Z,99423.03
2023-02-12T00:38:57.876Z,99426.70
2023-02-12T00:41:26.827Z,99430.61
2023-02-12T00:43:56.836Z,99435.93
2023-02-12T00:46:26.174Z,99440.75
2023-02-12T00:48:57.077Z,99443.03
2023-02-12T00:51:25.477Z,99445.11
2023-02-12T00:53:53.882Z,99450.00
2023-02-12T00:56:22.736Z,99453.25
2023-02-12T00:58:51.130Z,99455.39
2023-02-12T01:01:20.156Z,99457.68
2023-02-12T01:03:48.697Z,99460.79
2023-02-12T01:06:17.740Z,99469.98
2023-02-12T01:08:51.413Z,99471.29
2023-02-12T01:11:19.925Z,99476.87
2023-02-12T01:13:49.902Z,99482.85
2023-02-12T01:16:19.607Z,99486.21
2023-02-12T01:18:48.406Z,99492.55
2023-02-12T01:21:25.495Z,99493.43
2023-02-12T01:23:53.888Z,99490.78
2023-02-12T01:26:22.257Z,99499.93
2023-02-12T01:28:57.601Z,99499.23
2023-02-12T01:31:27.935Z,99511.20
2023-02-12T01:33:57.258Z,99512.73
2023-02-12T01:36:26.234Z,99516.95
2023-02-12T01:38:56.659Z,99519.45
2023-02-12T01:41:27.598Z,99526.93
2023-02-12T01:44:37.661Z,99533.17
2023-02-12T01:47:06.563Z,99537.01
2023-02-12T01:49:41.795Z,99539.73
2023-02-12T01:52:15.945Z,99545.96
2023-02-12T01:54:44.907Z,99556.19
2023-02-12T01:57:13.598Z,99569.90
2023-02-12T01:59:42.594Z,99573.59
2023-02-12T02:02:11.899Z,99578.38
2023-02-12T02:04:46.143Z,99576.11
2023-02-12T02:07:18.695Z,99588.08
2023-02-12T02:09:47.284Z,99588.55
2023-02-12T02:12:34.711Z,99593.73
2023-02-12T02:15:05.765Z,99596.59
2023-02-12T02:17:43.355Z,99606.19
2023-02-12T02:20:24.635Z,99611.10
2023-02-12T02:23:32.544Z,99616.95
2023-02-12T02:26:20.184Z,99628.67
2023-02-12T02:28:48.663Z,99635.58
2023-02-12T02:31:20.781Z,99644.70
2023-02-12T02:33:59.874Z,99652.63
2023-02-12T02:36:50.786Z,99661.17
2023-02-12T02:39:42.092Z,99668.77
2023-02-12T02:42:20.306Z,99671.46
2023-02-12T02:44:57.855Z,99679.11
2023-02-12T02:47:44.922Z,99691.89
2023-02-12T02:50:15.124Z,99701.98
2023-02-12T02:52:49.602Z,99705.55
2023-02-12T02:55:19.181Z,99711.95
2023-02-12T02:58:03.026Z,99716.05
2023-02-12T03:00:44.129Z,99723.99
2023-02-12T03:03:21.387Z,99736.17
2023-02-12T03:05:51.134Z,99738.01
2023-02-12T03:08:28.706Z,99746.87
2023-02-12T03:11:04.156Z,99758.31
2023-02-12T03:13:48.407Z,99766.33
2023-02-12T03:16:22.776Z,99762.23
2023-02-12T03:19:16.720Z,99781.39
2023-02-12T03:22:09.984Z,99793.39
2023-02-12T03:24:51.595Z,99808.61
2023-02-12T03:27:33.169Z,99815.34
2023-02-12T03:30:02.252Z,99828.36
2023-02-12T03:32:36.077Z,99831.72
2023-02-12T03:35:55.111Z,99839.90
2023-02-12T03:38:27.420Z,99853.48
2023-02-12T03:41:08.296Z,99857.05
2023-02-12T03:43:50.520Z,99866.44
2023-02-12T03:46:43.467Z,99879.84
2023-02-12T03:49:20.758Z,99886.06
2023-02-12T03:51:49.846Z,99873.30
2023-02-12T03:54:19.721Z,99889.00
2023-02-12T03:57:08.421Z,99894.30
2023-02-12T03:59:37.115Z,99901.08
2023-02-12T04:02:05.895Z,99905.89
2023-02-12T04:04:39.973Z,99916.23
2023-02-12T04:07:09.934Z,99923.97
2023-02-12T04:09:38.309Z,99930.95
2023-02-12T04:12:19.488Z,99935.03
2023-02-12T04:14:48.285Z,99939.02
2023-02-12T04:17:26.906Z,99943.28
2023-02-12T04:20:27.340Z,99949.54
2023-02-12T04:23:22.745Z,99957.96
2023-02-12T04:26:16.421Z,99965.79
2023-02-12T04:28:50.644Z,99975.82
2023-02-12T04:31:50.815Z,99980.31
2023-02-12T04:34:28.814Z,99983.67
2023-02-12T04:37:18.659Z,99988.33
2023-02-12T04:39:46.991Z,99986.64
2023-02-12T04:42:15.629Z,99993.45
2023-02-12T04:44:44.216Z,99998.77
2023-02-12T04:47:13.649Z,100001.92
2023-02-12T04:49:42.101Z,100002.39
2023-02-12T04:52:10.496Z,100009.70
2023-02-12T04:54:39.687Z,100017.52
2023-02-12T04:57:09.327Z,100022.54
2023-02-12T04:59:37.776Z,100028.42
2023-02-12T05:02:06.259Z,100027.59
2023-02-12T05:04:36.178Z,100028.59
2023-02-12T05:07:04.711Z,100032.64
2023-02-12T05:09:33.779Z,100041.25
2023-02-12T05:12:09.408Z,100045.40
2023-02-12T05:14:39.126Z,100047.59
2023-02-12T05:17:07.603Z,100057.42
2023-02-12T05:19:36.905Z,100063.02
2023-02-12T05:22:05.388Z,100069.55
2023-02-12T05:24:33.822Z,100078.38
2023-02-12T05:27:02.357Z,100083.70
2023-02-12T05:29:30.768Z,100088.96
2023-02-12T05:31:59.572Z,100104.51
2023-02-12T05:34:29.956Z,100111.44
2023-02-12T05:36:58.335Z,100118.00
2023-02-12T05:39:26.719Z,100123.80
2023-02-12T05:41:55.304Z,100126.48
2023-02-12T05:44:23.685Z,100125.73
2023-02-12T05:46:52.152Z,100136.38
2023-02-12T05:49:20.648Z,100139.30
2023-02-12T05:51:49.578Z,100142.29
2023-02-12T05:54:18.245Z,100142.02
2023-02-12T05:56:47.489Z,100157.15
2023-02-12T05:59:18.988Z,100165.10
2023-02-12T06:01:48.181Z,100161.00
2023-02-12T06:04:24.444Z,100161.11
2023-02-12T06:06:53.339Z,100175.48
2023-02-12T06:09:22.336Z,100185.66
2023-02-12T06:11:50.821Z,100174.26
2023-02-12T06:14:20.997Z,100183.00
2023-02-12T06:16:53.341Z,100192.48
2023-02-12T06:19:22.423Z,100195.77
2023-02-12T06:21:51.222Z,100194.08
2023-02-12T06:24:19.691Z,100196.05
2023-02-12T06:26:50.014Z,100202.06
2023-02-12T06:29:19.660Z,100210.11
2023-02-12T06:31:48.297Z,100207.06
2023-02-12T06:34:18.450Z,100213.84
2023-02-12T06:36:47.017Z,100211.02
2023-02-12T06:39:16.250Z,100215.49
2023-02-12T06:41:44.914Z,100217.37
2023-02-12T06:44:13.292Z,100216.35
2023-02-12T06:46:41.982Z,100221.40
2023-02-12T06:49:11.928Z,100229.11
2023-02-12T06:51:41.619Z,100235.34
2023-02-12T06:54:14.140Z,100237.22
2023-02-12T06:56:42.474Z,100244.61
2023-02-12T06:59:15.794Z,100254.20
2023-02-12T07:01:47.090Z,100260.09
2023-02-12T07:04:15.882Z,100265.74
2023-02-12T07:06:44.901Z,100271.42
2023-02-12T07:09:13.288Z,100272.29
2023-02-12T07:11:41.665Z,100278.59
2023-02-12T07:14:16.978Z,100282.74
2023-02-12T07:16:45.368Z,100288.34
2023-02-12T07:19:14.485Z,100295.05
2023-02-12T07:21:43.101Z,100298.25
2023-02-12T07:24:19.750Z,100299.95
2023-02-12T07:26:48.944Z,100301.54
2023-02-12T07:29:17.536Z,100301.58
2023-02-12T07:31:46.919Z,100307.27
2023-02-12T07:36:39.602Z,100309.00
2023-02-12T07:39:10.643Z,100310.02
2023-02-12T07:41:38.923Z,100297.20
2023-02-12T07:44:11.224Z,100300.64
2023-02-12T07:46:40.919Z,100299.02
2023-02-12T07:49:13.387Z,100301.15
2023-02-12T07:51:42.277Z,100298.80
2023-02-12T07:54:11.885Z,100307.26
2023-02-12T07:56:42.525Z,100310.39
2023-02-12T07:59:12.890Z,100309.99
2023-02-12T08:01:51.727Z,100316.65
2023-02-12T08:04:24.630Z,100321.11
2023-02-12T08:06:54.503Z,100324.02
2023-02-12T08:09:26.963Z,100321.11
2023-02-12T08:11:56.053Z,100335.73
2023-02-12T08:14:28.326Z,100341.63
2023-02-12T08:16:56.883Z,100343.89
2023-02-12T08:19:26.815Z,100344.35
2023-02-12T08:21:56.398Z,100352.40
2023-02-12T08:24:25.130Z,100359.54
2023-02-12T08:26:53.612Z,100364.19
2023-02-12T08:29:24.758Z,100363.27
2023-02-12T08:32:01.108Z,100374.52
2023-02-12T08:34:34.926Z,100381.86
2023-02-12T08:37:05.693Z,100374.80
2023-02-12T08:39:34.264Z,100377.73
2023-02-12T08:42:05.093Z,100386.36
2023-02-12T08:44:33.570Z,100395.33
2023-02-12T08:47:03.488Z,100386.77
2023-02-12T08:49:33.103Z,100388.34
2023-02-12T08:52:02.801Z,100393.93
2023-02-12T08:54:33.454Z,100397.65
2023-02-12T08:57:02.630Z,100398.02
2023-02-12T08:59:31.639Z,100404.52
2023-02-12T09:02:01.149Z,100408.63
2023-02-12T09:04:31.355Z,100413.91
2023-02-12T09:07:00.091Z,100415.56
2023-02-12T09:09:28.524Z,100414.42
2023-02-12T09:12:03.052Z,100416.05
2023-02-12T09:14:32.356Z,100419.99
2023-02-12T09:17:00.900Z,100424.42
2023-02-12T09:19:29.532Z,100423.39
2023-02-12T09:21:57.904Z,100418.90
2023-02-12T09:24:28.219Z,100415.98
2023-02-12T09:26:57.344Z,100422.07
2023-02-12T09:29:25.717Z,100424.75
2023-02-12T09:31:54.688Z,100422.75
2023-02-12T09:34:24.936Z,100422.58
2023-02-12T09:36:54.435Z,100429.30
2023-02-12T09:39:23.634Z,100431.40
2023-02-12T09:42:14.239Z,100433.57
2023-02-12T09:44:55.016Z,100426.48
2023-02-12T09:47:48.579Z,100439.91
2023-02-12T09:50:27.815Z,100430.11
2023-02-12T09:53:00.292Z,100434.02
2023-02-12T09:55:31.062Z,100441.99
2023-02-12T09:58:01.590Z,100434.15
2023-02-12T10:00:32.506Z,100425.19
2023-02-12T10:03:05.113Z,100430.30
2023-02-12T10:05:41.455Z,100435.48
2023-02-12T10:08:34.514Z,100425.52
2023-02-12T10:11:22.353Z,100429.92
2023-02-12T10:13:54.215Z,100428.44
2023-02-12T10:16:31.710Z,100428.73
2023-02-12T10:19:00.194Z,100427.55
2023-02-12T10:21:38.148Z,100427.74
2023-02-12T10:24:19.283Z,100433.73
2023-02-12T10:26:51.286Z,100430.02
2023-02-12T10:29:22.290Z,100425.16
2023-02-12T10:32:14.555Z,100428.84
2023-02-12T10:34:43.116Z,100439.17
2023-02-12T10:37:32.896Z,100437.96
2023-02-12T10:40:16.230Z,100443.95
2023-02-12T10:42:48.190Z,100437.57
2023-02-12T10:45:18.624Z,100443.94
2023-02-12T10:47:47.631Z,100447.33
2023-02-12T10:50:28.912Z,100439.04
2023-02-12T10:52:58.616Z,100446.06
2023-02-12T10:55:32.570Z,100447.69
2023-02-12T10:58:03.180Z,100444.73
2023-02-12T11:00:35.176Z,100448.71
2023-02-12T11:03:20.612Z,100450.31
2023-02-12T11:05:50.012Z,100463.08
2023-02-12T11:08:27.822Z,100465.61
2023-02-12T11:10:56.715Z,100473.33
2023-02-12T11:13:26.714Z,100473.67
2023-02-12T11:15:55.367Z,100470.05
2023-02-12T11:18:27.151Z,100473.08
2023-02-12T11:20:59.342Z,100475.73
2023-02-12T11:23:32.442Z,100476.92
2023-02-12T11:26:05.153Z,100481.15
2023-02-12T11:28:36.121Z,100486.63
2023-02-12T11:31:22.329Z,100483.67
2023-02-12T11:34:20.547Z,100484.88
2023-02-12T11:36:52.915Z,100481.48
2023-02-12T11:39:24.982Z,100479.84
2023-02-12T11:41:55.299Z,100480.04
2023-02-12T11:44:30.561Z,100486.58
2023-02-12T11:47:07.133Z,100488.19
2023-02-12T11:49:39.947Z,100485.81
2023-02-12T11:52:08.402Z,100492.20
2023-02-12T11:54:42.008Z,100492.18
2023-02-12T11:57:48.083Z,100493.83
2023-02-12T12:00:29.157Z,100490.78
2023-02-12T12:03:13.917Z,100488.65
2023-02-12T12:05:48.651Z,100492.10
2023-02-12T12:08:39.050Z,100492.34
2023-02-12T12:11:13.338Z,100489.63
2023-02-12T12:13:49.735Z,100488.66
2023-02-12T12:16:47.402Z,100482.31
2023-02-12T12:19:52.756Z,100481.96
2023-02-12T12:22:43.151Z,100479.30
2023-02-12T12:25:29.189Z,100481.02
2023-02-12T12:28:26.942Z,100489.64
2023-02-12T12:31:07.225Z,100498.03
2023-02-12T12:33:48.478Z,100497.34
2023-02-12T12:36:23.194Z,100499.77
2023-02-12T12:39:03.759Z,100496.39
2023-02-12T12:41:43.611Z,100497.85
2023-02-12T12:44:15.078Z,100500.20
2023-02-12T12:46:52.663Z,100504.41
2023-02-12T12:49:51.053Z,100504.67
2023-02-12T12:52:36.324Z,100510.83
2023-02-12T12:55:39.126Z,100508.13
2023-02-12T12:58:16.262Z,100510.23
2023-02-12T13:00:51.714Z,100517.48
2023-02-12T13:03:35.343Z,100514.08
2023-02-12T13:06:06.747Z,100516.27
2023-02-12T13:09:07.903Z,100524.15
2023-02-12T13:12:06.600Z,100520.77
2023-02-12T13:14:45.520Z,100525.95
2023-02-12T13:17:33.152Z,100524.34
2023-02-12T13:20:11.782Z,100534.35
2023-02-12T13:22:49.272Z,100534.11
2023-02-12T13:25:31.174Z,100542.00
2023-02-12T13:28:00.102Z,100542.30
2023-02-12T13:30:36.537Z,100547.23
2023-02-12T13:33:11.983Z,100551.58
2023-02-12T13:35:43.643Z,100554.70
2023-02-12T13:38:17.811Z,100549.69
2023-02-12T13:40:49.936Z,100553.80
2023-02-12T13:43:33.876Z,100557.11
2023-02-12T13:46:19.590Z,100560.12
2023-02-12T13:49:09.202Z,100557.38
2023-02-12T13:51:42.348Z,100555.79
2023-02-12T13:54:26.207Z,100560.23
2023-02-12T13:56:56.824Z,100561.66
2023-02-12T13:59:37.292Z,100566.01
2023-02-12T14:02:09.162Z,100575.60
2023-02-12T14:04:39.151Z,100577.77
2023-02-12T14:07:12.809Z,100581.55
2023-02-12T14:10:01.528Z,100584.71
2023-02-12T14:12:41.431Z,100586.67
2023-02-12T14:15:23.850Z,100590.48
2023-02-12T14:18:31.101Z,100596.05
2023-02-12T14:21:11.655Z,100603.16
2023-02-12T14:23:44.128Z,100604.95
2023-02-12T14:26:20.626Z,100602.24
2023-02-12T14:29:03.135Z,100603.44
2023-02-12T14:31:33.772Z,100608.54
2023-02-12T14:34:05.522Z,100610.70
2023-02-12T14:36:33.989Z,100616.04
2023-02-12T14:39:27.052Z,100617.80
2023-02-12T14:41:57.606Z,100620.75
2023-02-12T14:44:29.753Z,100619.65
2023-02-12T14:47:07.144Z,100626.20
2023-02-12T14:49:38.907Z,100633.33
2023-02-12T14:52:13.546Z,100630.46
2023-02-12T14:54:55.748Z,100634.91
2023-02-12T14:57:38.458Z,100634.52
2023-02-12T15:00:19.032Z,100628.93
2023-02-12T15:03:20.278Z,100649.74
2023-02-12T15:05:56.565Z,100658.07
2023-02-12T15:08:36.088Z,100666.10
2023-02-12T15:11:35.608Z,100673.33
2023-02-12T15:14:13.202Z,100680.01
2023-02-12T15:16:53.146Z,100687.65
2023-02-12T15:19:47.746Z,100694.34
2023-02-12T15:22:35.996Z,100697.42
2023-02-12T15:25:27.726Z,100697.05
2023-02-12T15:28:20.231Z,100702.74
2023-02-12T15:30:49.354Z,100697.85
2023-02-12T15:33:27.617Z,100697.52
2023-02-12T15:35:56.333Z,100698.23
2023-02-12T15:38:33.671Z,100701.63
2023-02-12T15:41:02.766Z,100709.24
2023-02-12T15:43:35.242Z,100710.02
2023-02-12T15:46:06.572Z,100717.92
2023-02-12T15:48:36.505Z,100718.70
2023-02-12T15:51:14.615Z,100709.91
2023-02-12T15:53:42.998Z,100720.41
2023-02-12T15:56:19.636Z,100721.46
2023-02-12T15:58:49.794Z,100725.98
2023-02-12T16:01:28.880Z,100724.38
2023-02-12T16:03:59.460Z,100728.08
2023-02-12T16:06:28.863Z,100724.80
2023-02-12T16:09:07.385Z,100729.20
2023-02-12T16:11:36.400Z,100726.70
2023-02-12T16:14:09.162Z,100733.41
2023-02-12T16:16:45.630Z,100731.83
2023-02-12T16:19:37.466Z,100737.13
2023-02-12T16:22:06.248Z,100735.23
2023-02-12T16:24:40.336Z,100742.49
2023-02-12T16:27:16.223Z,100748.77
2023-02-12T16:29:49.933Z,100747.33
2023-02-12T16:32:46.060Z,100747.05
2023-02-12T16:35:14.544Z,100744.67
2023-02-12T16:37:45.077Z,100737.92
2023-02-12T16:40:13.658Z,100757.70
2023-02-12T16:42:48.906Z,100761.64
2023-02-12T16:45:31.863Z,100751.86
2023-02-12T16:48:17.227Z,100761.83
2023-02-12T16:50:51.233Z,100770.71
2023-02-12T16:53:32.000Z,100773.16
2023-02-12T16:56:00.914Z,100774.42
2023-02-12T16:58:29.973Z,100768.80
2023-02-12T17:00:59.096Z,100772.73
2023-02-12T17:03:28.050Z,100771.69
2023-02-12T17:05:56.984Z,100772.45
2023-02-12T17:08:25.555Z,100776.16
2023-02-12T17:10:54.321Z,100773.52
2023-02-12T17:13:25.790Z,100771.95
2023-02-12T17:15:59.790Z,100783.18
2023-02-12T17:18:33.305Z,100785.58
2023-02-12T17:21:04.448Z,100787.79
2023-02-12T17:23:33.038Z,100785.84
2023-02-12T17:26:01.482Z,100785.86
2023-02-12T17:28:30.026Z,100790.10
2023-02-12T17:30:58.903Z,100787.89
2023-02-12T17:33:27.984Z,100788.38
2023-02-12T17:35:58.829Z,100783.48
2023-02-12T17:38:27.615Z,100786.04
2023-02-12T17:40:56.417Z,100783.14
2023-02-12T17:43:25.194Z,100789.98
2023-02-12T17:45:53.846Z,100797.38
2023-02-12T17:48:24.925Z,100797.78
2023-02-12T17:50:56.014Z,100798.05
2023-02-12T17:53:24.961Z,100799.02
2023-02-12T17:55:54.672Z,100801.34
2023-02-12T17:58:23.154Z,100804.54
2023-02-12T18:00:51.562Z,100808.06
2023-02-12T18:03:21.862Z,100809.70
2023-02-12T18:05:50.753Z,100810.16
2023-02-12T18:08:19.542Z,100812.77
2023-02-12T18:10:49.765Z,100812.13
2023-02-12T18:13:19.066Z,100810.85
2023-02-12T18:15:47.549Z,100806.25
2023-02-12T18:18:16.958Z,100811.91
2023-02-12T18:20:45.647Z,100812.80
2023-02-12T18:23:14.634Z,100818.64
2023-02-12T18:25:43.739Z,100822.27
2023-02-12T18:28:12.346Z,100827.18
2023-02-12T18:30:44.078Z,100823.89
2023-02-12T18:33:13.077Z,100833.73
2023-02-12T18:35:42.590Z,100834.52
2023-02-12T18:38:12.186Z,100837.51
2023-02-12T18:40:41.488Z,100834.31
2023-02-12T18:43:10.894Z,100836.73
2023-02-12T18:45:40.245Z,100839.39
2023-02-12T18:48:09.633Z,100841.45
2023-02-12T18:50:38.392Z,100838.56
2023-02-12T18:53:06.870Z,100842.23
2023-02-12T18:55:38.527Z,100831.63
2023-02-12T18:58:06.910Z,100831.20
2023-02-12T19:00:37.378Z,100825.95
2023-02-12T19:03:05.742Z,100830.88
2023-02-12T19:05:34.913Z,100828.82
2023-02-12T19:08:04.014Z,100827.67
2023-02-12T19:10:34.851Z,100827.14
2023-02-12T19:13:03.354Z,100824.23
2023-02-12T19:15:33.336Z,100826.05
2023-02-12T19:18:02.040Z,100820.04
2023-02-12T19:20:31.121Z,100817.67
2023-02-12T19:23:00.886Z,100820.67
2023-02-12T19:25:30.582Z,100820.71
2023-02-12T19:27:59.175Z,100815.36
2023-02-12T19:30:28.645Z,100821.02
2023-02-12T19:32:57.740Z,100826.89
2023-02-12T19:35:26.330Z,100822.10
2023-02-12T19:37:56.767Z,100817.29
2023-02-12T19:40:25.547Z,100812.98
2023-02-12T19:42:54.666Z,100811.30
2023-02-12T19:45:23.129Z,100810.17
2023-02-12T19:47:52.134Z,100800.73
2023-02-12T19:50:20.914Z,100798.83
2023-02-12T19:54:20.227Z,100802.88
2023-02-12T19:56:48.818Z,100806.34
2023-02-12T19:59:18.602Z,100805.04
2023-02-12T20:01:47.293Z,100797.00
2023-02-12T20:04:18.986Z,100800.65
2023-02-12T20:06:47.658Z,100798.15
2023-02-12T20:09:17.268Z,100804.27
2023-02-12T20:11:45.650Z,100801.89
2023-02-12T20:14:15.044Z,100799.23
2023-02-12T20:16:46.881Z,100795.97
2023-02-12T20:19:21.231Z,100798.84
2023-02-12T20:21:54.425Z,100797.96
2023-02-12T20:24:27.312Z,100796.64
2023-02-12T20:26:56.881Z,100798.30
2023-02-12T20:29:25.196Z,100802.94
2023-02-12T20:31:53.988Z,100801.66
2023-02-12T20:34:22.880Z,100797.23
2023-02-12T20:36:51.568Z,100799.25
2023-02-12T20:39:21.281Z,100799.10
2023-02-12T20:41:50.098Z,100798.33
2023-02-12T20:44:20.685Z,100799.67
2023-02-12T20:46:56.400Z,100799.98
2023-02-12T20:49:25.663Z,100802.64
2023-02-12T20:51:54.260Z,100805.01
2023-02-12T20:54:22.930Z,100804.94
2023-02-12T20:56:51.919Z,100805.58
2023-02-12T20:59:20.657Z,100805.27
2023-02-12T21:01:49.550Z,100803.53
2023-02-12T21:04:18.967Z,100800.38
2023-02-12T21:06:48.970Z,100806.61
2023-02-12T21:09:19.039Z,100803.42
2023-02-12T21:11:49.771Z,100801.27
2023-02-12T21:14:22.225Z,100805.10
2023-02-12T21:16:52.536Z,100804.48
2023-02-12T21:19:21.385Z,100808.56
2023-02-12T21:21:49.952Z,100808.41
2023-02-12T21:24:21.907Z,100814.94
2023-02-12T21:26:51.739Z,100821.46
2023-02-12T21:29:22.370Z,100816.02
2023-02-12T21:31:51.546Z,100797.64
2023-02-12T21:34:21.689Z,100811.29
2023-02-12T21:36:51.531Z,100818.58
2023-02-12T21:39:25.292Z,100820.27
2023-02-12T21:41:58.801Z,100822.89
2023-02-12T21:44:27.598Z,100828.55
2023-02-12T21:46:56.603Z,100827.19
2023-02-12T21:49:26.702Z,100827.84
2023-02-12T21:52:00.003Z,100828.81
2023-02-12T21:54:29.312Z,100830.83
2023-02-12T21:56:57.994Z,100832.83
2023-02-12T21:59:28.636Z,100845.03
2023-02-12T22:01:59.359Z,100847.95
2023-02-12T22:04:32.462Z,100849.27
2023-02-12T22:07:03.701Z,100849.45
2023-02-12T22:09:35.672Z,100852.59
2023-02-12T22:12:05.721Z,100850.27
2023-02-12T22:14:34.678Z,100851.18
2023-02-12T22:17:04.707Z,100849.48
2023-02-12T22:19:33.291Z,100846.84
2023-02-12T22:22:03.822Z,100848.33
2023-02-12T22:24:32.815Z,100844.56
2023-02-12T22:27:01.193Z,100843.88
2023-02-12T22:29:29.675Z,100841.88
2023-02-12T22:31:58.232Z,100843.11
2023-02-12T22:34:27.365Z,100838.83
2023-02-12T22:36:55.737Z,100836.27
2023-02-12T22:39:24.122Z,100834.19
2023-02-12T22:41:52.499Z,100834.38
2023-02-12T22:44:21.518Z,100835.03
2023-02-12T22:46:50.522Z,100833.31
2023-02-12T22:49:19.480Z,100834.64
2023-02-12T22:51:47.861Z,100832.14
2023-02-12T22:54:17.018Z,100830.89
2023-02-12T22:56:46.443Z,100834.89
2023-02-12T22:59:14.748Z,100832.98
2023-02-12T23:01:45.270Z,100827.17
2023-02-12T23:04:17.857Z,100825.64
2023-02-12T23:06:46.449Z,100824.88
2023-02-12T23:09:16.982Z,100819.55
2023-02-12T23:11:45.752Z,100821.80
2023-02-12T23:14:18.089Z,100825.34
2023-02-12T23:16:47.897Z,100827.45
2023-02-12T23:19:16.529Z,100830.30
2023-02-12T23:21:45.215Z,100828.67
2023-02-12T23:24:14.538Z,100822.63
2023-02-12T23:26:43.170Z,100816.10
2023-02-12T23:29:11.905Z,100813.52
2023-02-12T23:31:41.631Z,100808.56
2023-02-12T23:34:10.419Z,100810.55
2023-02-12T23:36:39.436Z,100809.73
2023-02-12T23:39:09.738Z,100809.04
2023-02-12T23:41:38.434Z,100805.19
2023-02-12T23:44:07.436Z,100802.83
2023-02-12T23:46:35.904Z,100801.79
2023-02-12T23:49:04.390Z,100792.92
2023-02-12T23:51:33.502Z,100794.61
2023-02-12T23:54:02.716Z,100788.08
2023-02-12T23:56:31.393Z,100789.97
2023-02-12T23:58:59.852Z,100783.69
